Time;durP1;ratioP1;P1;durP2;ratioP2;P2;SDS_P1;SDS_P2;PMS_P1;PMS_P2;Temp;Humidity;BMP_temperature;BMP_pressure;BME280_temperature;BME280_humidity;BME280_pressure;Samples;Min_cycle;Max_cycle;Signal;HPM_P1;HPM_P2
2021/05/16 00:02:03;;;;;;;0.98;0.65;;;10.10;4.60;;;;;;5082407;28;20091;-64
2021/05/16 00:04:52;;;;;;;3.95;1.10;;;10.10;4.40;;;;;;5082178;28;20166;-64
2021/05/16 00:07:41;;;;;;;3.75;1.25;;;10.10;4.20;;;;;;5072788;28;20092;-63
2021/05/16 00:10:30;;;;;;;4.68;0.85;;;10.20;4.20;;;;;;5075919;28;20045;-63
2021/05/16 00:13:18;;;;;;;1.85;1.00;;;10.10;4.30;;;;;;5078658;28;20553;-63
2021/05/16 00:16:07;;;;;;;1.02;0.70;;;10.10;4.10;;;;;;5067711;28;20085;-64
2021/05/16 00:18:55;;;;;;;3.45;0.90;;;10.20;4.30;;;;;;5071584;28;20052;-64
2021/05/16 00:21:43;;;;;;;2.28;0.80;;;10.20;4.50;;;;;;5080407;28;20150;-63
2021/05/16 00:24:31;;;;;;;2.90;1.20;;;10.10;4.30;;;;;;5073221;28;20079;-63
2021/05/16 00:27:30;;;;;;;3.47;1.13;;;10.10;4.80;;;;;;5072345;28;20111;-63
2021/05/16 00:30:19;;;;;;;1.95;0.70;;;10.10;5.10;;;;;;5078658;28;20161;-62
2021/05/16 00:33:07;;;;;;;2.38;0.68;;;10.20;4.60;;;;;;5077369;28;20088;-63
2021/05/16 00:35:55;;;;;;;6.57;0.93;;;10.20;4.90;;;;;;5081223;28;20059;-62
2021/05/16 00:38:43;;;;;;;3.53;1.00;;;10.20;5.20;;;;;;5072466;28;20127;-63
2021/05/16 00:41:31;;;;;;;4.05;1.08;;;10.20;5.00;;;;;;5078680;28;20056;-65
2021/05/16 00:44:22;;;;;;;2.75;0.75;;;10.20;4.90;;;;;;5066440;28;20045;-62
2021/05/16 00:47:10;;;;;;;1.67;0.75;;;10.30;4.30;;;;;;5063262;28;20397;-63
2021/05/16 00:49:58;;;;;;;1.02;0.60;;;10.20;4.30;;;;;;5077868;28;20289;-63
2021/05/16 00:52:46;;;;;;;3.08;0.95;;;10.40;4.30;;;;;;5081770;28;20408;-64
2021/05/16 00:55:35;;;;;;;2.95;0.60;;;10.30;4.30;;;;;;5064348;28;20028;-63
2021/05/16 00:58:23;;;;;;;1.92;0.80;;;10.30;4.30;;;;;;5079771;28;20404;-63
2021/05/16 01:01:14;;;;;;;2.30;0.82;;;10.30;4.30;;;;;;5065525;28;20060;-64
2021/05/16 01:04:09;;;;;;;3.08;0.90;;;10.40;5.70;;;;;;5064735;28;20436;-64
2021/05/16 01:06:58;;;;;;;2.20;0.80;;;10.30;6.80;;;;;;5061861;28;20117;-64
2021/05/16 01:09:46;;;;;;;3.22;0.70;;;10.30;7.30;;;;;;5079482;28;20043;-64
2021/05/16 01:12:41;;;;;;;1.80;0.95;;;10.30;8.00;;;;;;5078991;28;20525;-63
2021/05/16 01:15:29;;;;;;;3.80;0.93;;;10.20;8.50;;;;;;5072100;28;20178;-61
2021/05/16 01:18:19;;;;;;;4.75;0.93;;;10.20;9.50;;;;;;5071301;28;20060;-62
2021/05/16 01:21:08;;;;;;;3.65;0.90;;;10.20;10.10;;;;;;5079239;28;21223;-63
2021/05/16 01:23:57;;;;;;;2.80;1.15;;;10.20;10.70;;;;;;5074239;28;20045;-63
2021/05/16 01:27:00;;;;;;;2.72;1.40;;;10.20;10.90;;;;;;5075225;28;20524;-64
2021/05/16 01:29:48;;;;;;;1.90;0.90;;;10.20;10.50;;;;;;5076288;28;20434;-63
2021/05/16 01:32:36;;;;;;;1.50;0.80;;;10.30;10.20;;;;;;5077456;28;20061;-63
2021/05/16 01:35:24;;;;;;;3.20;1.17;;;10.20;9.90;;;;;;5079612;28;20203;-63
2021/05/16 01:38:13;;;;;;;3.70;1.30;;;10.30;9.90;;;;;;5049209;28;20095;-62
2021/05/16 01:41:02;;;;;;;4.57;1.60;;;10.30;9.80;;;;;;5074660;28;20048;-63
2021/05/16 01:43:56;;;;;;;3.72;0.82;;;10.40;8.60;;;;;;5059949;28;20529;-64
2021/05/16 01:46:46;;;;;;;1.35;0.77;;;10.30;9.20;;;;;;5072076;28;20071;-63
2021/05/16 01:49:42;;;;;;;3.58;1.02;;;10.40;8.80;;;;;;5069993;28;20138;-63
2021/05/16 01:52:34;;;;;;;1.90;0.77;;;10.40;8.30;;;;;;5069983;28;20118;-65
2021/05/16 01:55:30;;;;;;;2.92;1.13;;;10.40;8.60;;;;;;5072146;28;20100;-63
2021/05/16 01:58:20;;;;;;;4.82;1.23;;;10.40;8.00;;;;;;5069981;28;20072;-63
2021/05/16 02:01:09;;;;;;;2.22;1.10;;;10.40;7.80;;;;;;5074791;28;20052;-62
2021/05/16 02:04:08;;;;;;;5.00;1.00;;;10.30;7.50;;;;;;5072123;28;20047;-62
2021/05/16 02:06:57;;;;;;;2.28;1.45;;;10.30;7.80;;;;;;5051465;28;20060;-63
2021/05/16 02:09:47;;;;;;;2.58;1.20;;;10.30;8.00;;;;;;5076752;28;20051;-63
2021/05/16 02:12:36;;;;;;;3.63;1.25;;;10.30;7.80;;;;;;5060753;28;20055;-63
2021/05/16 02:15:26;;;;;;;2.80;1.20;;;10.30;7.70;;;;;;5073359;28;20071;-63
2021/05/16 02:18:16;;;;;;;4.55;1.42;;;10.40;7.70;;;;;;5071757;28;20045;-63
2021/05/16 02:21:12;;;;;;;2.28;1.08;;;10.40;7.60;;;;;;5064270;28;20495;-63
2021/05/16 02:24:05;;;;;;;2.22;0.98;;;10.50;7.40;;;;;;5044980;28;20050;-63
2021/05/16 02:27:06;;;;;;;2.13;0.90;;;10.40;7.20;;;;;;5048882;28;20032;-62
2021/05/16 02:30:09;;;;;;;3.00;1.40;;;10.40;8.70;;;;;;5078262;28;20394;-63
2021/05/16 02:33:00;;;;;;;5.00;1.35;;;10.40;10.40;;;;;;5062762;28;20045;-62
2021/05/16 02:35:48;;;;;;;3.13;0.95;;;10.30;11.00;;;;;;5066765;28;20063;-62
2021/05/16 02:38:36;;;;;;;3.30;1.50;;;10.40;11.40;;;;;;5053084;28;20500;-62
2021/05/16 02:41:25;;;;;;;3.08;1.33;;;10.40;11.70;;;;;;5078010;28;20530;-63
2021/05/16 02:44:14;;;;;;;2.65;1.10;;;10.40;12.50;;;;;;5064167;28;20080;-63
2021/05/16 02:47:02;;;;;;;3.63;1.10;;;10.30;12.70;;;;;;5057338;28;20043;-63
2021/05/16 02:49:52;;;;;;;2.92;1.13;;;10.30;15.90;;;;;;5063821;28;20048;-62
2021/05/16 02:52:41;;;;;;;5.57;1.30;;;10.20;17.60;;;;;;5049287;28;20067;-62
2021/05/16 02:55:31;;;;;;;3.13;1.20;;;10.20;19.40;;;;;;5060566;28;20052;-62
2021/05/16 02:58:19;;;;;;;4.32;1.50;;;10.20;21.00;;;;;;5051924;28;20078;-63
2021/05/16 03:01:13;;;;;;;3.42;1.73;;;10.20;21.20;;;;;;5061714;28;20036;-63
2021/05/16 03:04:07;;;;;;;3.17;1.27;;;10.20;22.20;;;;;;5077686;28;20047;-63
2021/05/16 03:06:57;;;;;;;4.63;1.33;;;10.10;23.50;;;;;;5058868;28;20032;-63
2021/05/16 03:09:45;;;;;;;5.43;1.90;;;10.10;24.60;;;;;;5069932;28;20044;-63
2021/05/16 03:12:33;;;;;;;6.13;1.50;;;10.00;24.60;;;;;;5047497;28;20075;-63
2021/05/16 03:15:22;;;;;;;2.35;1.30;;;10.10;25.60;;;;;;5061460;28;20044;-63
2021/05/16 03:18:10;;;;;;;4.47;1.40;;;10.10;25.60;;;;;;5058543;28;20078;-63
2021/05/16 03:21:02;;;;;;;2.75;1.55;;;10.10;25.60;;;;;;5048201;28;20041;-63
2021/05/16 03:23:51;;;;;;;3.80;1.38;;;10.00;26.10;;;;;;5074834;28;20048;-63
2021/05/16 03:26:41;;;;;;;2.67;1.10;;;10.10;26.60;;;;;;5079507;28;20060;-64
2021/05/16 03:29:31;;;;;;;3.55;1.60;;;10.00;25.50;;;;;;5069794;28;20044;-63
2021/05/16 03:32:19;;;;;;;3.50;1.45;;;10.10;25.60;;;;;;5079168;28;20056;-64
2021/05/16 03:35:08;;;;;;;3.15;1.52;;;10.10;24.50;;;;;;5079961;28;20764;-63
2021/05/16 03:37:56;;;;;;;3.63;1.58;;;10.10;25.60;;;;;;5077556;28;20117;-62
2021/05/16 03:40:45;;;;;;;3.55;1.42;;;10.00;25.50;;;;;;5077208;28;20418;-63
2021/05/16 03:43:33;;;;;;;2.22;1.38;;;10.00;25.50;;;;;;5083551;28;20127;-62
2021/05/16 03:46:21;;;;;;;4.72;1.40;;;10.10;25.90;;;;;;5085298;28;20048;-63
2021/05/16 03:49:09;;;;;;;3.88;1.30;;;10.10;25.60;;;;;;5076566;28;20524;-63
2021/05/16 03:51:57;;;;;;;2.80;1.73;;;10.10;26.10;;;;;;5066349;28;20052;-63
2021/05/16 03:54:46;;;;;;;5.32;1.85;;;10.20;24.90;;;;;;5081263;28;20048;-63
2021/05/16 03:57:35;;;;;;;2.15;1.25;;;10.20;25.50;;;;;;5074470;28;20196;-62
2021/05/16 04:00:24;;;;;;;4.65;1.67;;;10.20;25.60;;;;;;5084157;28;20101;-64
2021/05/16 04:03:11;;;;;;;4.00;1.60;;;10.20;25.40;;;;;;5076045;28;20052;-64
2021/05/16 04:05:59;;;;;;;4.57;1.60;;;10.20;26.60;;;;;;5078866;28;20051;-64
2021/05/16 04:08:47;;;;;;;2.72;1.52;;;10.10;27.70;;;;;;5074863;28;20423;-63
2021/05/16 04:11:36;;;;;;;2.35;1.40;;;10.00;28.90;;;;;;5080362;28;20085;-63
2021/05/16 04:14:25;;;;;;;4.18;1.60;;;9.90;32.00;;;;;;5081857;28;20051;-64
2021/05/16 04:17:13;;;;;;;2.03;1.80;;;9.90;34.50;;;;;;5076707;28;20058;-64
2021/05/16 04:20:03;;;;;;;4.03;1.90;;;9.80;33.50;;;;;;5077159;28;20514;-63
2021/05/16 04:22:51;;;;;;;2.90;1.90;;;9.80;37.80;;;;;;5078845;28;20056;-63
2021/05/16 04:25:39;;;;;;;3.63;2.05;;;9.80;38.00;;;;;;5081199;28;20044;-62
2021/05/16 04:28:27;;;;;;;4.47;2.08;;;9.80;40.10;;;;;;5073567;28;20040;-63
2021/05/16 04:31:15;;;;;;;4.68;1.90;;;9.70;41.50;;;;;;5079539;28;20040;-63
2021/05/16 04:34:04;;;;;;;6.53;2.10;;;9.70;42.30;;;;;;5078195;28;20044;-64
2021/05/16 04:36:52;;;;;;;2.53;1.60;;;9.70;43.80;;;;;;5078002;28;20082;-63
2021/05/16 04:39:40;;;;;;;3.80;1.80;;;9.70;43.20;;;;;;5077461;28;20043;-63
2021/05/16 04:42:30;;;;;;;2.28;1.75;;;9.70;45.30;;;;;;5078946;28;20040;-63
2021/05/16 04:45:18;;;;;;;5.60;2.13;;;9.80;44.90;;;;;;5081759;28;20474;-63
2021/05/16 04:48:07;;;;;;;4.20;1.80;;;9.90;45.10;;;;;;5070289;28;20045;-63
2021/05/16 04:50:56;;;;;;;2.75;1.77;;;9.90;44.50;;;;;;5082470;28;20052;-62
2021/05/16 04:53:44;;;;;;;3.97;1.70;;;9.90;43.10;;;;;;5079541;28;20044;-63
2021/05/16 04:56:32;;;;;;;2.95;1.27;;;9.90;41.80;;;;;;5079753;28;20126;-63
2021/05/16 04:59:19;;;;;;;2.83;1.60;;;10.00;41.10;;;;;;5056954;28;20047;-63
2021/05/16 05:02:07;;;;;;;3.03;1.42;;;10.00;41.20;;;;;;5074246;28;20079;-62
2021/05/16 05:04:56;;;;;;;3.40;1.48;;;10.00;42.10;;;;;;5073311;28;20119;-63
2021/05/16 05:07:45;;;;;;;2.35;1.35;;;10.00;42.00;;;;;;5076013;28;20128;-63
2021/05/16 05:10:32;;;;;;;1.60;1.40;;;10.00;40.90;;;;;;5081556;28;20137;-63
2021/05/16 05:13:21;;;;;;;4.32;1.38;;;10.10;38.40;;;;;;5076581;28;20047;-63
2021/05/16 05:16:09;;;;;;;4.55;1.50;;;10.20;37.90;;;;;;5071923;28;20071;-64
2021/05/16 05:18:56;;;;;;;2.22;1.30;;;10.20;37.20;;;;;;5072728;28;20194;-62
2021/05/16 05:21:45;;;;;;;2.20;1.40;;;10.40;35.70;;;;;;5079175;28;20047;-63
2021/05/16 05:24:33;;;;;;;3.40;1.42;;;12.50;17.30;;;;;;5091606;28;20124;-63
2021/05/16 05:27:24;;;;;;;3.85;1.10;;;11.90;18.50;;;;;;5076895;28;20461;-63
2021/05/16 05:30:14;;;;;;;2.85;0.95;;;12.40;15.00;;;;;;5076070;28;20725;-64
2021/05/16 05:33:01;;;;;;;5.18;1.80;;;12.10;17.70;;;;;;5075020;28;20201;-63
2021/05/16 05:35:50;;;;;;;3.75;1.20;;;11.60;19.50;;;;;;5064269;28;20124;-63
2021/05/16 05:38:38;;;;;;;1.42;0.90;;;11.40;22.40;;;;;;5072508;28;20086;-63
2021/05/16 05:41:26;;;;;;;3.22;1.00;;;11.50;24.00;;;;;;5074837;28;20624;-63
2021/05/16 05:44:15;;;;;;;1.80;0.70;;;11.40;21.60;;;;;;5081731;28;20063;-63
2021/05/16 05:47:03;;;;;;;2.00;0.60;;;11.70;23.10;;;;;;5076137;28;20051;-63
2021/05/16 05:49:53;;;;;;;1.17;0.60;;;11.70;19.70;;;;;;5074562;28;20051;-62
2021/05/16 05:52:41;;;;;;;3.08;0.90;;;11.90;16.20;;;;;;5075995;28;20182;-63
2021/05/16 05:55:30;;;;;;;3.20;0.85;;;12.40;15.80;;;;;;5076285;28;20059;-63
2021/05/16 05:58:18;;;;;;;3.83;1.88;;;11.80;15.50;;;;;;5072901;28;20085;-63
2021/05/16 06:01:06;;;;;;;5.85;0.95;;;11.60;19.70;;;;;;5077816;28;20062;-63
2021/05/16 06:03:54;;;;;;;2.45;0.65;;;11.20;23.10;;;;;;5077549;28;20307;-62
2021/05/16 06:06:42;;;;;;;2.38;0.60;;;11.20;25.80;;;;;;5074812;28;20091;-63
2021/05/16 06:09:31;;;;;;;3.28;1.00;;;11.10;26.20;;;;;;5072921;28;20496;-63
2021/05/16 06:12:20;;;;;;;4.80;1.40;;;11.10;26.50;;;;;;5077708;28;20105;-63
2021/05/16 06:15:09;;;;;;;2.05;0.90;;;11.10;29.00;;;;;;5076791;28;20095;-62
2021/05/16 06:17:57;;;;;;;3.80;1.00;;;11.20;27.80;;;;;;5058910;28;20044;-62
2021/05/16 06:20:45;;;;;;;2.63;1.65;;;11.20;27.60;;;;;;5079676;28;20161;-62
2021/05/16 06:23:36;;;;;;;2.85;0.90;;;11.30;28.40;;;;;;5064805;28;20055;-63
2021/05/16 06:26:24;;;;;;;2.42;1.00;;;11.40;24.30;;;;;;5076947;28;20186;-62
2021/05/16 06:29:14;;;;;;;3.53;0.98;;;11.40;26.10;;;;;;5070157;28;20778;-63
2021/05/16 06:32:02;;;;;;;3.17;0.95;;;11.40;24.70;;;;;;5075474;28;20554;-64
2021/05/16 06:34:50;;;;;;;2.28;1.20;;;11.70;25.50;;;;;;5078201;28;20504;-64
2021/05/16 06:37:38;;;;;;;1.92;1.00;;;11.60;22.60;;;;;;5073675;28;20109;-64
2021/05/16 06:40:26;;;;;;;1.27;0.88;;;12.00;19.80;;;;;;5077086;28;20571;-63
2021/05/16 06:43:17;;;;;;;1.42;0.90;;;12.30;16.60;;;;;;5075905;28;20055;-63
2021/05/16 06:46:06;;;;;;;2.55;0.85;;;12.50;17.70;;;;;;5076326;28;20067;-64
2021/05/16 06:48:54;;;;;;;1.58;0.60;;;12.70;16.30;;;;;;5073374;28;20595;-63
2021/05/16 06:51:42;;;;;;;3.17;0.82;;;12.90;15.50;;;;;;5077757;28;20507;-63
2021/05/16 06:54:30;;;;;;;1.30;0.50;;;12.70;13.80;;;;;;5078928;28;20127;-63
2021/05/16 06:57:19;;;;;;;2.97;0.75;;;13.20;11.10;;;;;;5070821;28;20077;-62
2021/05/16 07:00:08;;;;;;;2.78;0.90;;;13.20;10.10;;;;;;5077416;28;20059;-63
2021/05/16 07:02:57;;;;;;;2.15;0.80;;;13.00;9.80;;;;;;5075735;28;20092;-63
2021/05/16 07:05:45;;;;;;;2.53;0.88;;;13.00;10.20;;;;;;5058188;28;20769;-63
2021/05/16 07:08:34;;;;;;;4.00;1.02;;;13.00;11.90;;;;;;5074498;28;20185;-63
2021/05/16 07:11:22;;;;;;;1.98;0.90;;;12.80;10.90;;;;;;5083764;28;20040;-63
2021/05/16 07:14:10;;;;;;;3.78;0.88;;;12.90;11.30;;;;;;5080341;28;20052;-63
2021/05/16 07:16:58;;;;;;;2.38;0.70;;;12.80;10.30;;;;;;5081569;28;20048;-63
2021/05/16 07:19:46;;;;;;;2.45;0.70;;;12.80;9.70;;;;;;5079672;28;20079;-61
2021/05/16 07:22:34;;;;;;;2.10;0.80;;;13.10;10.80;;;;;;5080146;28;20052;-62
2021/05/16 07:25:22;;;;;;;4.20;1.10;;;13.20;6.20;;;;;;5079829;28;20079;-62
2021/05/16 07:28:10;;;;;;;6.47;1.48;;;13.20;6.90;;;;;;5076928;28;20055;-62
2021/05/16 07:30:58;;;;;;;3.38;0.77;;;13.20;7.30;;;;;;5067174;28;20048;-63
2021/05/16 07:33:46;;;;;;;2.95;1.00;;;13.30;7.50;;;;;;5083446;28;20090;-63
2021/05/16 07:36:35;;;;;;;1.67;0.50;;;13.60;5.60;;;;;;5075861;28;20529;-63
2021/05/16 07:39:24;;;;;;;2.90;0.88;;;13.60;2.00;;;;;;5061656;28;20416;-63
2021/05/16 07:42:12;;;;;;;2.58;0.70;;;13.70;1.50;;;;;;5072729;28;20118;-63
2021/05/16 07:44:59;;;;;;;2.47;0.80;;;13.70;1.50;;;;;;5073994;28;20211;-63
2021/05/16 07:47:47;;;;;;;0.73;0.50;;;13.80;1.60;;;;;;5053313;28;20049;-62
2021/05/16 07:50:36;;;;;;;1.52;0.60;;;13.90;1.00;;;;;;5073882;28;20484;-62
2021/05/16 07:53:25;;;;;;;1.17;0.52;;;13.90;1.00;;;;;;5080432;28;20044;-62
2021/05/16 07:56:13;;;;;;;4.88;1.00;;;13.50;1.00;;;;;;5071888;28;20174;-62
2021/05/16 07:59:01;;;;;;;3.00;0.82;;;13.90;1.00;;;;;;5070944;28;20040;-62
2021/05/16 08:01:49;;;;;;;2.85;0.98;;;13.80;1.00;;;;;;5079486;28;20048;-63
2021/05/16 08:04:37;;;;;;;3.13;0.80;;;13.70;1.00;;;;;;5051897;28;20122;-63
2021/05/16 08:07:25;;;;;;;4.47;1.30;;;13.80;1.20;;;;;;5075811;28;20187;-64
2021/05/16 08:10:14;;;;;;;2.25;0.85;;;13.60;1.20;;;;;;5080853;28;20201;-62
2021/05/16 08:13:02;;;;;;;2.25;0.90;;;13.40;2.50;;;;;;5078220;28;20044;-61
2021/05/16 08:15:50;;;;;;;1.77;0.60;;;13.50;3.20;;;;;;5079246;28;20048;-62
2021/05/16 08:18:38;;;;;;;1.98;1.02;;;13.70;1.00;;;;;;5056079;28;20093;-63
2021/05/16 08:21:26;;;;;;;4.10;0.98;;;13.70;1.10;;;;;;5078812;28;20140;-63
2021/05/16 08:24:15;;;;;;;3.17;1.00;;;14.00;1.00;;;;;;5077067;28;20125;-62
2021/05/16 08:27:06;;;;;;;4.85;1.58;;;14.00;1.00;;;;;;5063867;28;20044;-62
2021/05/16 08:29:54;;;;;;;5.40;0.90;;;14.40;1.00;;;;;;5077371;28;20081;-64
2021/05/16 08:32:43;;;;;;;2.50;0.80;;;14.40;1.00;;;;;;5078407;28;20044;-63
2021/05/16 08:35:32;;;;;;;1.42;0.50;;;15.10;1.00;;;;;;5077157;28;20068;-63
2021/05/16 08:38:20;;;;;;;2.45;0.68;;;14.90;1.00;;;;;;5073302;28;20419;-63
2021/05/16 08:41:10;;;;;;;5.63;0.88;;;15.20;1.00;;;;;;5079318;28;20078;-63
2021/05/16 08:44:00;;;;;;;3.50;0.80;;;15.30;1.00;;;;;;5079047;28;20071;-63
2021/05/16 08:46:48;;;;;;;2.88;0.63;;;15.30;1.00;;;;;;5078126;28;20117;-63
2021/05/16 08:49:36;;;;;;;1.63;0.55;;;15.70;1.00;;;;;;5074242;28;20138;-63
2021/05/16 08:52:25;;;;;;;4.03;1.13;;;15.80;1.00;;;;;;5080207;28;20036;-62
2021/05/16 08:55:17;;;;;;;1.75;0.70;;;16.10;1.00;;;;;;5073583;28;20508;-63
2021/05/16 08:58:06;;;;;;;2.45;1.25;;;16.10;1.00;;;;;;5055222;28;20056;-64
2021/05/16 09:00:55;;;;;;;2.55;0.88;;;16.20;1.00;;;;;;5076624;28;20048;-62
2021/05/16 09:03:43;;;;;;;4.13;1.02;;;15.80;1.00;;;;;;5078367;28;20610;-63
2021/05/16 09:06:34;;;;;;;2.60;0.98;;;15.00;1.00;;;;;;5078780;28;20391;-60
2021/05/16 09:09:27;;;;;;;3.20;0.80;;;15.10;1.00;;;;;;5073721;28;20871;-60
2021/05/16 09:12:15;;;;;;;3.90;1.30;;;15.20;1.00;;;;;;5079662;28;20113;-61
2021/05/16 09:15:04;;;;;;;2.70;0.90;;;15.80;1.00;;;;;;5079913;28;20075;-61
2021/05/16 09:17:53;;;;;;;3.22;0.90;;;16.10;1.00;;;;;;5071643;28;20053;-60
2021/05/16 09:20:41;;;;;;;3.33;0.75;;;16.10;1.00;;;;;;5078835;28;20044;-60
2021/05/16 09:23:29;;;;;;;3.17;0.93;;;16.50;1.00;;;;;;5080919;28;20511;-60
2021/05/16 09:26:17;;;;;;;2.78;0.85;;;16.50;1.00;;;;;;5080185;28;20908;-61
2021/05/16 09:29:19;;;;;;;5.05;1.10;;;16.20;1.00;;;;;;5066707;28;20400;-61
2021/05/16 09:32:08;;;;;;;2.65;1.00;;;15.70;1.00;;;;;;5073294;28;20051;-60
2021/05/16 09:34:58;;;;;;;1.70;0.60;;;15.60;1.00;;;;;;5076035;28;20043;-60
2021/05/16 09:37:59;;;;;;;2.72;1.10;;;15.90;1.00;;;;;;5076396;28;20559;-61
2021/05/16 09:40:49;;;;;;;3.08;0.90;;;15.80;1.00;;;;;;5078273;28;20051;-61
2021/05/16 09:43:37;;;;;;;3.67;1.30;;;15.60;1.00;;;;;;5076513;28;20051;-60
2021/05/16 09:46:25;;;;;;;2.88;0.95;;;15.30;1.00;;;;;;5072876;28;20056;-61
2021/05/16 09:49:25;;;;;;;3.80;1.10;;;15.50;1.00;;;;;;5072657;28;20114;-61
2021/05/16 09:52:16;;;;;;;6.18;1.50;;;15.70;1.00;;;;;;5077715;28;20076;-61
2021/05/16 09:55:05;;;;;;;4.45;1.23;;;16.30;1.00;;;;;;5075142;28;20039;-61
2021/05/16 09:57:53;;;;;;;7.93;1.20;;;16.70;1.00;;;;;;5073165;28;20496;-60
2021/05/16 10:00:41;;;;;;;5.22;1.23;;;17.20;1.00;;;;;;5077388;28;20044;-61
2021/05/16 10:03:30;;;;;;;4.78;1.30;;;17.70;1.00;;;;;;5061078;28;20035;-61
2021/05/16 10:06:19;;;;;;;6.53;1.45;;;17.30;1.00;;;;;;5077004;28;20056;-62
2021/05/16 10:09:08;;;;;;;4.75;1.30;;;17.20;1.00;;;;;;5074897;28;20048;-60
2021/05/16 10:11:56;;;;;;;3.22;1.23;;;17.30;1.00;;;;;;5073331;28;20040;-61
2021/05/16 10:14:48;;;;;;;3.22;1.10;;;17.30;1.00;;;;;;5076490;28;20055;-61
2021/05/16 10:17:38;;;;;;;3.30;1.38;;;16.70;1.00;;;;;;5069308;28;20048;-61
2021/05/16 10:20:28;;;;;;;5.13;1.27;;;17.10;1.00;;;;;;5069842;28;20543;-61
2021/05/16 10:23:31;;;;;;;1.80;0.85;;;17.40;1.00;;;;;;5079526;28;20105;-62
2021/05/16 10:26:24;;;;;;;2.15;1.02;;;17.90;1.00;;;;;;5075253;28;20048;-61
2021/05/16 10:29:14;;;;;;;3.17;0.85;;;17.10;1.00;;;;;;5066959;28;20133;-60
2021/05/16 10:32:06;;;;;;;4.43;1.10;;;17.40;1.00;;;;;;5075330;28;20046;-61
2021/05/16 10:34:56;;;;;;;5.38;1.20;;;17.20;1.00;;;;;;5074460;28;20783;-60
2021/05/16 10:37:47;;;;;;;3.70;1.17;;;16.70;1.00;;;;;;5058909;28;20113;-62
2021/05/16 10:40:36;;;;;;;3.53;1.55;;;17.00;1.00;;;;;;5077690;28;20149;-60
2021/05/16 10:43:27;;;;;;;5.65;1.50;;;17.00;1.00;;;;;;5080226;28;20048;-61
2021/05/16 10:46:41;;;;;;;3.40;1.15;;;17.70;1.00;;;;;;5074456;28;20145;-61
2021/05/16 10:49:31;;;;;;;3.17;1.00;;;16.60;1.00;;;;;;5063966;28;20133;-61
2021/05/16 10:52:29;;;;;;;5.53;1.40;;;16.40;1.00;;;;;;5076191;28;20101;-61
2021/05/16 10:55:26;;;;;;;4.28;1.40;;;16.70;1.00;;;;;;5076748;28;20040;-61
2021/05/16 10:58:45;;;;;;;5.45;1.40;;;17.20;1.00;;;;;;5078428;28;20507;-61
2021/05/16 11:01:36;;;;;;;4.38;0.95;;;18.30;1.00;;;;;;5078392;28;20066;-61
2021/05/16 11:04:45;;;;;;;6.30;1.00;;;18.80;1.00;;;;;;5077187;28;20128;-64
2021/05/16 11:07:35;;;;;;;4.30;1.20;;;18.40;1.00;;;;;;5071830;28;20057;-62
2021/05/16 11:10:29;;;;;;;3.95;1.10;;;18.10;1.00;;;;;;5074028;28;20051;-64
2021/05/16 11:13:18;;;;;;;3.85;1.13;;;18.20;1.00;;;;;;5076897;28;20097;-64
2021/05/16 11:16:09;;;;;;;4.30;1.15;;;18.50;1.00;;;;;;5073459;28;20055;-63
2021/05/16 11:18:57;;;;;;;5.10;1.38;;;18.40;1.00;;;;;;5073027;28;20052;-64
2021/05/16 11:21:45;;;;;;;4.13;1.00;;;18.50;1.00;;;;;;5060122;28;20526;-64
2021/05/16 11:24:38;;;;;;;3.38;1.10;;;18.10;1.00;;;;;;5058860;28;20044;-63
2021/05/16 11:27:28;;;;;;;2.28;0.88;;;17.50;1.00;;;;;;5069244;28;20058;-63
2021/05/16 11:30:17;;;;;;;2.25;0.90;;;17.70;1.00;;;;;;5072247;28;20048;-64
2021/05/16 11:33:06;;;;;;;2.08;0.80;;;18.80;1.00;;;;;;5067909;28;20048;-64
2021/05/16 11:35:54;;;;;;;3.42;0.98;;;19.00;1.00;;;;;;5077090;28;20056;-61
2021/05/16 11:38:45;;;;;;;2.60;0.98;;;18.30;1.00;;;;;;5073781;28;20086;-64
2021/05/16 11:41:35;;;;;;;3.17;0.95;;;18.30;1.00;;;;;;5078132;28;20131;-63
2021/05/16 11:44:25;;;;;;;3.15;0.90;;;18.50;1.00;;;;;;5077973;28;20044;-64
2021/05/16 11:47:12;;;;;;;4.45;1.13;;;18.40;1.00;;;;;;5068307;28;20508;-63
2021/05/16 11:50:01;;;;;;;2.72;1.00;;;18.30;1.00;;;;;;5073267;28;20065;-63
2021/05/16 11:52:59;;;;;;;3.53;1.80;;;19.00;1.00;;;;;;5078470;28;20047;-64
2021/05/16 11:55:47;;;;;;;5.25;3.50;;;19.00;1.00;;;;;;5078031;28;20127;-63
2021/05/16 11:58:36;;;;;;;3.97;1.50;;;19.40;1.00;;;;;;5072949;28;20056;-63
2021/05/16 12:01:27;;;;;;;5.00;2.25;;;18.80;1.00;;;;;;5083016;28;20063;-63
2021/05/16 12:04:16;;;;;;;4.28;1.83;;;18.50;1.00;;;;;;5080657;28;20702;-64
2021/05/16 12:07:05;;;;;;;7.57;3.25;;;18.70;1.00;;;;;;5076840;28;20500;-64
2021/05/16 12:09:53;;;;;;;5.43;2.70;;;18.60;1.00;;;;;;5080373;28;21511;-64
2021/05/16 12:12:44;;;;;;;5.03;1.90;;;17.70;1.00;;;;;;5082097;28;20210;-64
2021/05/16 12:15:34;;;;;;;2.75;1.55;;;18.50;1.00;;;;;;5080550;28;20067;-64
2021/05/16 12:18:23;;;;;;;4.97;1.10;;;18.80;1.00;;;;;;5074943;28;20051;-63
2021/05/16 12:21:11;;;;;;;2.55;0.90;;;18.80;1.00;;;;;;5082271;28;20056;-63
2021/05/16 12:24:04;;;;;;;4.90;2.20;;;19.20;1.00;;;;;;5063553;28;20044;-63
2021/05/16 12:26:53;;;;;;;1.02;0.50;;;18.50;1.00;;;;;;5079993;28;20078;-63
2021/05/16 12:29:41;;;;;;;2.60;1.25;;;18.00;1.00;;;;;;5066026;28;20515;-64
2021/05/16 12:32:31;;;;;;;3.28;1.35;;;17.90;1.00;;;;;;5063395;28;20126;-63
2021/05/16 12:35:19;;;;;;;3.70;1.10;;;18.40;1.00;;;;;;5077161;28;20075;-63
2021/05/16 12:38:10;;;;;;;2.40;0.88;;;18.40;1.00;;;;;;5073163;28;20131;-64
2021/05/16 12:41:13;;;;;;;1.98;0.77;;;18.70;1.00;;;;;;5080019;28;20131;-64
2021/05/16 12:44:07;;;;;;;3.88;2.22;;;17.80;1.00;;;;;;5063015;28;20542;-63
2021/05/16 12:46:57;;;;;;;1.92;0.88;;;18.40;1.00;;;;;;5076247;28;20074;-64
2021/05/16 12:49:46;;;;;;;3.63;0.77;;;18.10;1.00;;;;;;5078678;28;20043;-63
2021/05/16 12:52:34;;;;;;;2.85;1.20;;;18.00;1.00;;;;;;5076178;28;20047;-63
2021/05/16 12:55:29;;;;;;;3.47;1.60;;;18.00;1.00;;;;;;5081963;28;20055;-63
2021/05/16 12:58:28;;;;;;;6.03;1.20;;;17.50;1.00;;;;;;5074335;28;20048;-64
2021/05/16 13:01:21;;;;;;;7.15;1.73;;;17.30;1.00;;;;;;5067156;28;20048;-62
2021/05/16 13:04:11;;;;;;;7.00;1.42;;;16.30;1.00;;;;;;5081968;28;20121;-63
2021/05/16 13:06:59;;;;;;;4.45;1.00;;;16.40;1.00;;;;;;5075415;28;20063;-63
2021/05/16 13:09:49;;;;;;;2.47;1.10;;;16.40;1.00;;;;;;5080280;28;20169;-64
2021/05/16 13:12:37;;;;;;;5.47;1.20;;;16.90;1.00;;;;;;5077789;28;20135;-65
2021/05/16 13:15:33;;;;;;;2.03;0.98;;;17.00;1.00;;;;;;5077486;28;20269;-65
2021/05/16 13:18:26;;;;;;;1.85;0.68;;;17.40;1.00;;;;;;5076648;28;20041;-65
2021/05/16 13:21:28;;;;;;;3.28;0.80;;;17.70;1.00;;;;;;5076213;28;20052;-65
2021/05/16 13:24:16;;;;;;;3.38;0.95;;;17.30;1.00;;;;;;5079056;28;20044;-63
2021/05/16 13:27:13;;;;;;;6.63;1.00;;;16.90;1.00;;;;;;5056804;28;20123;-70
2021/05/16 13:30:05;;;;;;;1.77;0.75;;;17.80;1.00;;;;;;5063797;28;20437;-62
2021/05/16 13:32:53;;;;;;;3.72;0.80;;;17.80;1.00;;;;;;5063760;28;20048;-61
2021/05/16 13:35:41;;;;;;;3.10;0.90;;;18.20;1.00;;;;;;5079579;28;20192;-62
2021/05/16 13:38:30;;;;;;;3.33;0.80;;;17.90;1.00;;;;;;5069873;28;20384;-62
2021/05/16 13:41:19;;;;;;;3.67;1.10;;;17.40;1.00;;;;;;5080665;28;20047;-62
2021/05/16 13:44:07;;;;;;;3.70;1.02;;;17.60;1.00;;;;;;5074706;28;20380;-60
2021/05/16 13:46:55;;;;;;;3.95;0.90;;;16.90;1.00;;;;;;5051316;28;20032;-64
2021/05/16 13:49:45;;;;;;;4.38;1.17;;;17.20;1.00;;;;;;5072298;28;20036;-64
2021/05/16 13:52:33;;;;;;;3.63;1.05;;;16.60;1.00;;;;;;5061940;28;20080;-67
2021/05/16 13:55:21;;;;;;;3.38;0.65;;;16.20;1.00;;;;;;5067487;28;20131;-64
2021/05/16 13:58:09;;;;;;;3.53;0.88;;;15.90;1.00;;;;;;5070059;28;20672;-64
2021/05/16 14:00:57;;;;;;;2.40;0.70;;;15.80;1.00;;;;;;5076195;28;20610;-64
2021/05/16 14:03:45;;;;;;;2.72;0.70;;;15.70;1.00;;;;;;5065421;28;20178;-64
2021/05/16 14:06:35;;;;;;;3.88;0.80;;;15.60;1.00;;;;;;5064486;28;20411;-63
2021/05/16 14:09:26;;;;;;;3.65;0.90;;;15.80;1.00;;;;;;5068992;28;20368;-64
2021/05/16 14:12:14;;;;;;;2.30;0.73;;;15.70;1.00;;;;;;5074245;28;20428;-63
2021/05/16 14:15:02;;;;;;;1.77;0.50;;;15.00;1.00;;;;;;5075621;28;20117;-63
2021/05/16 14:17:50;;;;;;;4.63;0.80;;;15.00;1.00;;;;;;5071167;28;20044;-63
2021/05/16 14:20:38;;;;;;;1.48;0.73;;;15.30;1.00;;;;;;5046110;28;20639;-63
2021/05/16 14:23:27;;;;;;;3.58;0.60;;;15.30;1.00;;;;;;5078549;28;20071;-64
2021/05/16 14:26:16;;;;;;;3.75;0.80;;;15.40;1.00;;;;;;5078997;28;20083;-64
2021/05/16 14:29:04;;;;;;;3.95;0.63;;;15.50;1.00;;;;;;5073117;28;20055;-64
2021/05/16 14:31:55;;;;;;;5.47;0.90;;;15.50;1.00;;;;;;5059874;28;20045;-65
2021/05/16 14:34:43;;;;;;;4.80;1.45;;;15.80;1.00;;;;;;5067640;28;20117;-65
2021/05/16 14:37:31;;;;;;;1.95;0.80;;;16.20;1.00;;;;;;5072233;28;20109;-64
2021/05/16 14:40:20;;;;;;;4.82;0.90;;;16.90;1.00;;;;;;5076501;28;20365;-64
2021/05/16 14:43:10;;;;;;;1.55;0.93;;;16.90;1.00;;;;;;5077212;28;20183;-64
2021/05/16 14:45:58;;;;;;;3.70;1.23;;;16.90;1.00;;;;;;5073011;28;20052;-65
2021/05/16 14:48:46;;;;;;;3.60;0.95;;;17.30;1.00;;;;;;5070935;28;20058;-65
2021/05/16 14:51:34;;;;;;;4.28;1.13;;;17.30;1.00;;;;;;5061188;28;20407;-64